Time;durP1;ratioP1;P1;durP2;ratioP2;P2;SDS_P1;SDS_P2;PMS_P1;PMS_P2;Temp;Humidity;BMP_temperature;BMP_pressure;BME280_temperature;BME280_humidity;BME280_pressure;Samples;Min_cycle;Max_cycle;Signal;HPM_P1;HPM_P2
2021/08/21 00:02:04;;;;;;;7.60;6.80;;;16.60;99.90;;;17.53;84.45;98140.06;5215369;28;20684;-56
2021/08/21 00:04:37;;;;;;;7.80;7.03;;;16.60;99.90;;;17.49;85.15;98133.06;5219564;28;20201;-57
2021/08/21 00:07:12;;;;;;;7.22;6.53;;;16.60;99.90;;;17.46;85.27;98140.72;5222207;28;20204;-58
2021/08/21 00:09:46;;;;;;;7.75;7.10;;;16.60;99.90;;;17.42;85.20;98141.41;5223672;28;20193;-56
2021/08/21 00:12:19;;;;;;;7.63;6.90;;;16.50;99.90;;;17.43;85.32;98142.31;5224497;28;20233;-57
2021/08/21 00:14:53;;;;;;;7.68;7.05;;;16.50;99.90;;;17.39;85.54;98141.31;5222865;28;20582;-56
2021/08/21 00:17:26;;;;;;;7.10;6.50;;;16.40;99.90;;;17.39;85.23;98143.00;5222932;28;20205;-55
2021/08/21 00:19:59;;;;;;;7.45;6.70;;;16.40;99.90;;;17.33;85.96;98148.84;5226381;28;20308;-59
2021/08/21 00:22:33;;;;;;;7.30;6.70;;;16.40;99.90;;;17.33;85.53;98146.25;5223082;28;20685;-58
2021/08/21 00:25:09;;;;;;;7.25;6.75;;;16.40;99.90;;;17.31;85.52;98142.72;5224134;28;20575;-55
2021/08/21 00:27:43;;;;;;;7.15;6.55;;;16.40;99.90;;;17.29;86.05;98144.41;5221092;28;20201;-59
2021/08/21 00:30:16;;;;;;;7.50;6.80;;;16.40;99.90;;;17.27;86.09;98151.22;5222260;28;20200;-60
2021/08/21 00:32:51;;;;;;;7.55;6.72;;;16.40;99.90;;;17.24;85.58;98148.53;5222593;28;20235;-51
2021/08/21 00:35:24;;;;;;;7.32;6.68;;;16.30;99.90;;;17.20;85.91;98138.94;5221722;28;20193;-58
2021/08/21 00:37:59;;;;;;;7.00;6.47;;;16.30;99.90;;;17.16;86.13;98142.22;5220365;28;20202;-58
2021/08/21 00:40:32;;;;;;;6.93;6.38;;;16.30;99.90;;;17.10;86.78;98133.41;5221955;28;20664;-55
2021/08/21 00:43:05;;;;;;;6.10;5.60;;;16.20;99.90;;;17.09;86.46;98134.25;5221339;28;20217;-57
2021/08/21 00:45:38;;;;;;;7.40;6.72;;;16.20;99.90;;;17.11;85.83;98142.03;5220485;28;20205;-57
2021/08/21 00:48:12;;;;;;;7.07;6.47;;;16.10;99.90;;;17.07;86.14;98138.47;5221091;28;20575;-60
2021/08/21 00:50:45;;;;;;;6.90;6.40;;;16.10;99.90;;;17.06;85.94;98135.84;5218622;28;20203;-61
2021/08/21 00:53:20;;;;;;;7.78;6.97;;;16.10;99.90;;;17.00;85.76;98136.50;5225956;28;20680;-60
2021/08/21 00:55:53;;;;;;;7.32;6.75;;;16.00;99.90;;;16.91;86.13;98125.81;5219938;28;20188;-57
2021/08/21 00:58:28;;;;;;;8.00;7.20;;;16.00;99.90;;;16.87;86.04;98129.13;5218459;28;20239;-57
2021/08/21 01:01:01;;;;;;;7.47;6.88;;;15.90;99.90;;;16.84;86.54;98129.00;5219999;28;20223;-55
2021/08/21 01:03:35;;;;;;;7.07;6.43;;;15.90;99.90;;;16.82;87.17;98123.78;5219260;28;20197;-59
2021/08/21 01:06:08;;;;;;;7.10;6.60;;;15.90;99.90;;;16.84;87.00;98122.13;5218881;28;20288;-60
2021/08/21 01:08:42;;;;;;;7.80;7.10;;;15.90;99.90;;;16.76;86.97;98126.13;5221187;28;20200;-55
2021/08/21 01:11:15;;;;;;;8.02;7.32;;;15.90;99.90;;;16.72;87.48;98123.38;5220279;28;20217;-56
2021/08/21 01:13:48;;;;;;;7.03;6.40;;;15.80;99.90;;;16.72;87.17;98126.81;5224604;28;20221;-56
2021/08/21 01:16:22;;;;;;;7.30;6.70;;;15.80;99.90;;;16.66;87.60;98124.03;5226853;28;20608;-57
2021/08/21 01:18:55;;;;;;;7.53;6.82;;;15.80;99.90;;;16.64;87.70;98121.38;5223535;28;20715;-56
2021/08/21 01:21:28;;;;;;;7.10;6.50;;;15.80;99.90;;;16.66;86.93;98117.16;5218919;28;20214;-56
2021/08/21 01:24:04;;;;;;;7.43;6.82;;;15.70;99.90;;;16.61;87.40;98125.53;5221525;28;20208;-59
2021/08/21 01:26:49;;;;;;;7.25;6.65;;;15.70;99.90;;;16.57;87.26;98119.41;5222463;28;20563;-56
2021/08/21 01:29:23;;;;;;;7.25;6.65;;;15.70;99.90;;;16.58;87.79;98115.09;5221864;28;20213;-57
2021/08/21 01:31:56;;;;;;;7.22;6.63;;;15.70;99.90;;;16.57;87.41;98119.41;5220631;28;20229;-58
2021/08/21 01:34:29;;;;;;;7.35;6.63;;;15.70;99.90;;;16.56;87.01;98120.19;5220071;28;20205;-61
2021/08/21 01:37:02;;;;;;;7.00;6.40;;;15.60;99.90;;;16.56;87.29;98116.75;5220891;28;20206;-58
2021/08/21 01:39:35;;;;;;;8.40;6.82;;;15.60;99.90;;;16.47;87.64;98121.56;5224351;28;20201;-58
2021/08/21 01:42:10;;;;;;;8.07;6.97;;;15.50;99.90;;;16.38;87.54;98120.38;5219599;28;20224;-55
2021/08/21 01:44:43;;;;;;;7.85;7.25;;;15.50;99.90;;;16.33;88.03;98121.03;5219413;28;20203;-55
2021/08/21 01:47:17;;;;;;;8.15;7.35;;;15.40;99.90;;;16.32;88.03;98117.56;5219674;28;20208;-55
2021/08/21 01:49:56;;;;;;;7.15;6.60;;;15.40;99.90;;;16.32;88.32;98122.72;5218418;28;20198;-56
2021/08/21 01:52:30;;;;;;;7.57;6.97;;;15.50;99.90;;;16.38;88.05;98119.50;5218676;28;20312;-57
2021/08/21 01:55:04;;;;;;;7.30;6.70;;;15.40;99.90;;;16.33;87.87;98126.19;5218323;28;20226;-60
2021/08/21 01:57:41;;;;;;;7.32;6.72;;;15.40;99.90;;;16.31;88.10;98114.91;5220708;28;20208;-58
2021/08/21 02:00:16;;;;;;;7.05;6.45;;;15.40;99.90;;;16.24;87.63;98118.09;5220933;28;20207;-57
2021/08/21 02:02:49;;;;;;;7.55;6.85;;;15.30;99.90;;;16.21;88.12;98114.56;5217489;22;20225;-80
2021/08/21 02:05:22;;;;;;;7.78;7.18;;;15.30;99.90;;;16.16;88.99;98115.22;5201206;28;20228;-78
2021/08/21 02:07:55;;;;;;;8.05;7.25;;;15.30;99.90;;;16.16;89.07;98110.94;5203662;28;20198;-79
2021/08/21 02:10:29;;;;;;;7.68;7.07;;;15.30;99.90;;;16.18;88.98;98109.28;5202205;28;20197;-81
2021/08/21 02:13:04;;;;;;;7.50;6.90;;;15.30;99.90;;;16.18;89.03;98113.59;5203374;28;20718;-78
2021/08/21 02:15:37;;;;;;;7.40;6.80;;;15.30;99.90;;;16.17;88.91;98106.69;5201086;28;20581;-77
2021/08/21 02:18:10;;;;;;;7.50;6.80;;;15.30;99.90;;;16.12;89.65;98105.59;5202761;28;20274;-80
2021/08/21 02:20:43;;;;;;;7.15;6.47;;;15.30;99.90;;;16.11;89.01;98102.16;5206909;28;20216;-80
2021/08/21 02:23:16;;;;;;;7.38;6.78;;;15.20;99.90;;;16.09;88.69;98097.75;5203223;28;20198;-82
2021/08/21 02:25:56;;;;;;;6.72;6.20;;;15.20;99.90;;;16.09;88.65;98103.78;5209198;28;20704;-82
2021/08/21 02:28:31;;;;;;;6.72;6.20;;;15.20;99.90;;;16.07;88.94;98105.41;5210153;28;20200;-80
2021/08/21 02:31:04;;;;;;;6.78;6.28;;;15.20;99.90;;;16.08;88.94;98099.47;5201767;28;20199;-80
2021/08/21 02:33:38;;;;;;;7.35;6.75;;;15.20;99.90;;;16.06;88.72;98108.81;5197862;28;20218;-81
2021/08/21 02:36:12;;;;;;;7.15;6.57;;;15.20;99.90;;;16.09;88.32;98108.06;5208254;28;20222;-80
2021/08/21 02:38:47;;;;;;;7.40;6.80;;;15.20;99.90;;;16.04;88.40;98100.13;5205553;28;20297;-79
2021/08/21 02:41:20;;;;;;;6.10;5.70;;;15.10;99.90;;;16.04;88.33;98102.72;5202565;28;20202;-79
2021/08/21 02:43:54;;;;;;;6.93;6.43;;;15.10;99.90;;;16.02;87.95;98103.47;5202933;28;20490;-79
2021/08/21 02:46:27;;;;;;;6.38;5.78;;;15.10;99.90;;;15.98;88.58;98102.47;5200368;28;20197;-79
2021/08/21 02:49:00;;;;;;;6.45;5.95;;;15.10;99.90;;;15.97;88.69;98098.16;5204932;28;20225;-80
2021/08/21 02:51:33;;;;;;;7.22;6.63;;;15.10;99.90;;;15.94;88.89;98092.88;5210478;28;20205;-80
2021/08/21 02:54:06;;;;;;;7.43;6.72;;;15.10;99.90;;;15.91;88.93;98092.72;5205176;28;20218;-80
2021/08/21 02:56:39;;;;;;;7.88;7.25;;;15.00;99.90;;;15.96;88.61;98097.25;5206209;28;20198;-79
2021/08/21 02:59:14;;;;;;;7.63;6.93;;;15.10;99.90;;;15.97;88.20;98090.41;5200993;28;20264;-79
2021/08/21 03:01:47;;;;;;;7.55;6.90;;;15.10;99.90;;;15.97;88.42;98087.84;5200288;28;20208;-80
2021/08/21 03:04:20;;;;;;;7.22;6.57;;;15.10;99.90;;;15.96;88.72;98086.94;5201398;28;20218;-82
2021/08/21 03:06:53;;;;;;;7.40;6.80;;;15.10;99.90;;;15.96;89.11;98089.50;5202146;28;20209;-79
2021/08/21 03:09:26;;;;;;;6.05;5.57;;;15.10;99.90;;;15.98;89.35;98085.31;5200915;28;20201;-80
2021/08/21 03:11:59;;;;;;;6.68;6.18;;;15.10;99.90;;;16.01;88.71;98089.72;5204779;28;20671;-79
2021/08/21 03:14:34;;;;;;;6.45;5.85;;;15.20;99.90;;;15.97;89.04;98095.56;5200958;28;20229;-80
2021/08/21 03:17:10;;;;;;;6.75;6.25;;;15.10;99.90;;;15.99;88.57;98087.09;5202226;28;20203;-80
2021/08/21 03:19:43;;;;;;;6.43;5.90;;;15.10;99.90;;;16.00;87.92;98093.13;5199131;28;20297;-80
2021/08/21 03:22:16;;;;;;;6.30;5.80;;;15.10;99.90;;;15.97;88.48;98083.56;5200568;28;20288;-80
2021/08/21 03:24:49;;;;;;;6.72;6.13;;;15.10;99.90;;;15.97;88.38;98091.28;5198704;28;20224;-81
2021/08/21 03:27:23;;;;;;;6.35;5.85;;;15.10;99.90;;;15.93;88.34;98089.41;5203732;28;20194;-81
2021/08/21 03:29:57;;;;;;;6.35;5.85;;;15.00;99.90;;;15.90;88.44;98091.84;5200622;28;20194;-81
2021/08/21 03:32:30;;;;;;;5.88;5.38;;;15.00;99.90;;;15.89;88.07;98090.09;5201185;28;20213;-82
2021/08/21 03:35:04;;;;;;;7.00;6.25;;;15.00;99.90;;;15.86;88.98;98086.53;5204387;28;20788;-82
2021/08/21 03:37:37;;;;;;;6.95;6.43;;;15.00;99.90;;;15.79;88.21;98087.09;5204337;28;20914;-82
2021/08/21 03:40:12;;;;;;;7.35;6.70;;;14.90;99.90;;;15.75;88.08;98092.13;5200789;28;20202;-81
2021/08/21 03:42:45;;;;;;;6.00;5.60;;;14.80;99.90;;;15.71;88.43;98087.69;5203152;28;20193;-81
2021/08/21 03:45:19;;;;;;;6.40;5.90;;;14.80;99.90;;;15.72;88.51;98085.97;5204354;28;20229;-80
2021/08/21 03:47:53;;;;;;;6.45;5.95;;;14.80;99.90;;;15.71;89.04;98087.69;5209155;28;20297;-79
2021/08/21 03:50:27;;;;;;;5.97;5.57;;;14.90;99.90;;;15.73;88.62;98090.31;5205449;28;20233;-80
2021/08/21 03:53:00;;;;;;;6.25;5.75;;;14.80;99.90;;;15.69;88.99;98099.63;5200843;28;20277;-80
2021/08/21 03:55:33;;;;;;;6.50;5.90;;;14.80;99.90;;;15.66;88.94;98096.88;5204529;28;20226;-80
2021/08/21 03:58:06;;;;;;;6.22;5.72;;;14.80;99.90;;;15.67;88.61;98098.63;5203931;28;20381;-80
2021/08/21 04:00:40;;;;;;;6.45;5.85;;;14.70;99.90;;;15.69;88.60;98097.03;5203973;28;20683;-80
2021/08/21 04:03:14;;;;;;;6.20;5.70;;;14.80;99.90;;;15.65;88.30;98084.81;5206426;28;20236;-80
2021/08/21 04:05:47;;;;;;;6.68;6.07;;;14.70;99.90;;;15.63;88.67;98093.31;5206692;28;20226;-80
2021/08/21 04:08:20;;;;;;;6.20;5.70;;;14.70;99.90;;;15.63;89.10;98091.59;5206424;28;20233;-79
2021/08/21 04:10:53;;;;;;;5.80;5.32;;;14.70;99.90;;;15.63;89.00;98081.28;5203411;28;20674;-80
2021/08/21 04:13:27;;;;;;;5.30;4.80;;;14.80;99.90;;;15.61;89.84;98088.06;5203838;28;20290;-81
2021/08/21 04:16:02;;;;;;;6.13;5.53;;;14.80;99.90;;;15.62;89.53;98076.06;5204671;28;20666;-79
2021/08/21 04:18:35;;;;;;;6.20;5.80;;;14.80;99.90;;;15.61;89.35;98087.19;5208113;28;20197;-80
2021/08/21 04:21:09;;;;;;;6.22;5.72;;;14.80;99.90;;;15.65;88.28;98079.66;5210724;28;20205;-82
2021/08/21 04:23:42;;;;;;;6.40;5.80;;;14.70;99.90;;;15.55;88.41;98085.25;5203455;28;20208;-80
2021/08/21 04:26:15;;;;;;;6.20;5.50;;;14.70;99.90;;;15.57;88.85;98091.34;5206406;28;20252;-79
2021/08/21 04:28:48;;;;;;;5.68;5.28;;;14.70;99.90;;;15.57;89.18;98091.34;5203685;28;20216;-81
2021/08/21 04:31:22;;;;;;;5.57;5.18;;;14.70;99.90;;;15.54;89.17;98088.66;5204988;28;20213;-80
2021/08/21 04:33:56;;;;;;;6.22;5.75;;;14.70;99.90;;;15.51;88.83;98085.97;5205138;28;20220;-81
2021/08/21 04:36:29;;;;;;;6.32;5.28;;;14.60;99.90;;;15.48;88.95;98086.72;5203714;28;20285;-81
2021/08/21 04:39:02;;;;;;;6.03;5.53;;;14.60;99.90;;;15.49;89.26;98087.56;5204950;28;20206;-81
2021/08/21 04:41:35;;;;;;;6.30;5.70;;;14.60;99.90;;;15.55;89.42;98098.13;5203507;28;20218;-81
2021/08/21 04:44:08;;;;;;;6.85;6.35;;;14.70;99.90;;;15.56;89.83;98099.88;5206116;28;20198;-80
2021/08/21 04:46:43;;;;;;;5.78;5.38;;;14.70;99.90;;;15.62;89.36;98099.25;5203150;28;20217;-81
2021/08/21 04:49:16;;;;;;;5.97;5.47;;;14.80;99.90;;;15.63;89.24;98103.59;5208078;28;20631;-79
2021/08/21 04:51:49;;;;;;;6.88;6.38;;;14.80;99.90;;;15.62;88.55;98110.44;5206005;28;20292;-82
2021/08/21 04:54:22;;;;;;;5.80;5.30;;;14.80;99.90;;;15.65;89.16;98110.59;5199901;28;20232;-81
2021/08/21 04:56:55;;;;;;;5.80;5.30;;;14.80;99.90;;;15.70;88.95;98111.66;5203035;28;21588;-81
2021/08/21 04:59:28;;;;;;;6.07;5.57;;;14.80;99.90;;;15.74;88.62;98111.00;5204542;28;20221;-80
2021/08/21 05:02:03;;;;;;;6.20;5.70;;;14.90;99.90;;;15.75;88.99;98106.72;5203409;28;20213;-80
2021/08/21 05:04:37;;;;;;;5.80;5.30;;;14.90;99.90;;;15.83;88.37;98114.75;5204730;28;20225;-81
2021/08/21 05:07:10;;;;;;;5.70;5.20;;;15.00;99.90;;;15.85;87.83;98107.94;5205681;28;20206;-82
2021/08/21 05:09:43;;;;;;;5.80;5.32;;;15.00;99.90;;;15.94;87.15;98108.34;5201334;28;20207;-81
2021/08/21 05:12:16;;;;;;;5.57;5.18;;;15.00;99.90;;;15.97;87.06;98113.63;5202062;28;20209;-80
2021/08/21 05:14:49;;;;;;;5.28;4.85;;;15.10;99.90;;;15.99;86.98;98118.03;5200185;28;20340;-79
2021/08/21 05:17:28;;;;;;;5.32;4.85;;;15.00;99.90;;;16.00;86.89;98121.47;5203199;28;20209;-82
2021/08/21 05:20:05;;;;;;;5.53;5.00;;;15.10;99.90;;;16.06;86.89;98119.13;5196896;28;20205;-80
2021/08/21 05:22:47;;;;;;;4.82;4.50;;;15.10;99.90;;;16.12;86.37;98114.22;5202908;28;20202;-80
2021/08/21 05:25:24;;;;;;;5.47;5.07;;;15.20;99.90;;;16.27;85.82;98113.06;5203476;28;20224;-78
2021/08/21 05:27:58;;;;;;;6.32;5.82;;;15.30;99.90;;;16.44;85.81;98112.88;5218228;28;20221;-82
2021/08/21 05:30:31;;;;;;;5.82;5.32;;;15.40;99.90;;;16.67;84.88;98116.31;5216041;28;20285;-82
2021/08/21 05:33:09;;;;;;;5.22;4.82;;;15.60;99.90;;;17.16;83.19;98108.63;5204032;28;20198;-81
2021/08/21 05:35:43;;;;;;;5.57;5.03;;;16.00;99.90;;;17.57;80.90;98110.06;5205347;28;20236;-82
2021/08/21 05:38:16;;;;;;;5.07;4.57;;;16.40;99.90;;;18.05;79.28;98109.03;5205932;28;20206;-81
2021/08/21 05:40:49;;;;;;;5.18;4.65;;;16.80;99.90;;;18.38;76.20;98110.09;5202036;28;20293;-82
2021/08/21 05:43:22;;;;;;;5.45;5.05;;;17.10;99.90;;;18.53;75.22;98113.97;5202605;28;20208;-81
2021/08/21 05:45:55;;;;;;;4.75;4.45;;;17.10;99.90;;;18.87;74.67;98108.97;5201433;28;20309;-83
2021/08/21 05:48:30;;;;;;;4.75;4.28;;;17.50;99.90;;;19.20;73.31;98102.97;5204659;28;20252;-83
2021/08/21 05:51:03;;;;;;;4.75;4.40;;;17.80;99.90;;;19.35;73.00;98110.28;5204025;28;20197;-82
2021/08/21 05:53:36;;;;;;;4.63;4.32;;;17.90;99.90;;;19.30;72.41;98104.06;5201703;28;20213;-81
2021/08/21 05:56:09;;;;;;;5.18;4.75;;;17.90;99.90;;;19.62;71.75;98117.00;5200167;28;20739;-82
2021/08/21 05:58:42;;;;;;;4.70;4.30;;;18.10;99.90;;;19.83;70.36;98106.31;5203978;28;20216;-81
2021/08/21 06:01:15;;;;;;;5.28;4.78;;;18.20;99.90;;;19.66;70.70;98104.19;5202546;28;20198;-82
2021/08/21 06:03:51;;;;;;;4.72;4.43;;;18.10;99.90;;;19.71;70.78;98104.28;5202155;28;20288;-83
2021/08/21 06:06:24;;;;;;;5.43;5.03;;;18.10;99.90;;;19.66;71.27;98116.25;5202157;28;20577;-83
2021/08/21 06:08:57;;;;;;;5.03;4.53;;;18.10;99.90;;;19.90;70.63;98121.19;5201503;28;20692;-83
2021/08/21 06:11:31;;;;;;;5.60;5.20;;;18.30;99.90;;;20.21;69.45;98126.28;5197911;28;20206;-80
2021/08/21 06:14:04;;;;;;;6.43;5.90;;;18.50;99.90;;;20.18;68.99;98118.41;5198025;28;20202;-81
2021/08/21 06:16:37;;;;;;;5.95;5.53;;;18.60;99.90;;;20.41;67.93;98131.06;5200922;28;20204;-80
2021/08/21 06:19:11;;;;;;;5.57;5.13;;;18.60;99.90;;;20.61;67.72;98123.75;5205322;28;20201;-80
2021/08/21 06:21:44;;;;;;;5.40;5.00;;;18.90;99.90;;;20.96;66.64;98129.66;5209481;28;20201;-79
2021/08/21 06:24:17;;;;;;;5.65;5.07;;;19.10;99.90;;;21.05;66.49;98127.25;5207848;28;20264;-80
2021/08/21 06:26:50;;;;;;;5.22;4.72;;;19.20;99.90;;;21.11;65.85;98127.34;5217456;28;20301;-80
2021/08/21 06:29:23;;;;;;;5.30;4.82;;;19.30;99.90;;;21.26;65.63;98120.69;5202875;28;20214;-80
2021/08/21 06:31:56;;;;;;;4.43;4.13;;;19.40;99.90;;;21.47;64.98;98128.94;5215346;28;20289;-80
2021/08/21 06:34:33;;;;;;;4.90;4.50;;;19.60;99.90;;;21.85;63.70;98123.53;5211572;28;20218;-80
2021/08/21 06:37:06;;;;;;;5.13;4.63;;;19.80;99.90;;;21.75;63.28;98124.25;5206560;28;20209;-80
2021/08/21 06:39:39;;;;;;;4.90;4.50;;;19.90;99.90;;;21.71;63.56;98122.41;5212861;28;20198;-80
2021/08/21 06:42:12;;;;;;;4.50;4.20;;;19.80;99.90;;;21.84;63.95;98129.59;5214752;28;20197;-79
2021/08/21 06:44:45;;;;;;;5.47;4.97;;;20.00;99.90;;;21.88;63.49;98133.13;5225373;28;20304;-79
2021/08/21 06:47:19;;;;;;;4.82;4.43;;;20.10;99.90;;;22.12;62.33;98125.72;5214556;28;20265;-79
2021/08/21 06:49:53;;;;;;;4.95;4.47;;;20.30;99.90;;;22.26;61.67;98121.63;5214369;28;20207;-80
2021/08/21 06:52:26;;;;;;;4.97;4.57;;;20.50;99.90;;;22.52;61.67;98125.44;5210092;28;20593;-79
2021/08/21 06:54:59;;;;;;;5.63;5.13;;;20.70;99.90;;;22.78;61.25;98126.69;5204893;28;20309;-80
2021/08/21 06:57:32;;;;;;;5.30;4.80;;;20.80;99.90;;;23.06;60.24;98127.03;5209338;28;20201;-80
2021/08/21 07:00:07;;;;;;;5.43;5.00;;;21.10;99.90;;;23.29;59.73;98119.47;5205147;28;20207;-80
2021/08/21 07:02:40;;;;;;;5.13;4.68;;;21.30;99.90;;;23.35;58.80;98122.16;5208086;28;20614;-80
2021/08/21 07:05:15;;;;;;;4.97;4.57;;;21.50;99.90;;;23.44;58.61;98119.66;5209644;28;20217;-79
2021/08/21 07:07:48;;;;;;;4.65;4.25;;;21.50;99.90;;;23.42;57.42;98115.28;5209206;28;20205;-80
2021/08/21 07:10:22;;;;;;;5.03;4.57;;;21.50;99.90;;;23.33;57.77;98113.44;5207324;28;20229;-80
2021/08/21 07:12:55;;;;;;;4.32;3.97;;;21.60;99.90;;;23.74;56.96;98110.38;5208417;28;20204;-80
2021/08/21 07:15:28;;;;;;;4.93;4.40;;;21.80;99.90;;;23.74;56.70;98119.09;5206766;28;20775;-79
2021/08/21 07:18:01;;;;;;;5.20;4.70;;;22.00;99.90;;;23.96;56.75;98120.16;5212143;28;20208;-79
2021/08/21 07:20:36;;;;;;;4.95;4.30;;;22.00;99.90;;;24.09;56.15;98115.88;5205429;28;20687;-78
2021/08/21 07:23:09;;;;;;;4.50;4.10;;;22.10;99.90;;;24.44;54.69;98117.91;5204402;28;20723;-78
2021/08/21 07:25:42;;;;;;;4.38;4.07;;;22.30;99.90;;;24.62;54.98;98111.91;5204421;28;20219;-79
2021/08/21 07:28:15;;;;;;;4.60;4.20;;;22.40;99.90;;;24.79;54.02;98106.78;5207714;28;20285;-78
2021/08/21 07:30:48;;;;;;;4.35;3.95;;;22.50;99.90;;;24.97;53.59;98108.59;5205239;28;20305;-79
2021/08/21 07:33:21;;;;;;;4.30;3.88;;;22.70;99.90;;;25.15;53.95;98109.56;5202448;28;20207;-79
2021/08/21 07:35:56;;;;;;;5.07;4.30;;;22.90;99.90;;;25.55;53.19;98106.13;5206613;28;20233;-78
2021/08/21 07:38:29;;;;;;;4.22;3.83;;;23.10;99.90;;;26.00;51.46;98107.06;5203942;28;20212;-79
2021/08/21 07:41:02;;;;;;;4.10;3.80;;;23.50;99.90;;;26.62;50.56;98105.28;5206788;28;20201;-79
2021/08/21 07:43:35;;;;;;;4.63;4.22;;;23.80;99.90;;;26.74;50.33;98113.97;5219679;28;20288;-79
2021/08/21 07:46:08;;;;;;;5.78;4.00;;;24.10;99.90;;;26.51;50.02;98100.91;5210147;28;20692;-79
2021/08/21 07:48:41;;;;;;;4.32;3.88;;;24.40;99.90;;;26.64;50.52;98103.50;5217904;28;20243;-79
2021/08/21 07:51:16;;;;;;;4.25;3.95;;;24.70;99.90;;;26.88;50.40;98095.53;5203959;28;20212;-78
2021/08/21 07:53:49;;;;;;;4.32;3.92;;;25.10;99.90;;;26.79;50.72;98103.47;5207969;28;20207;-79
2021/08/21 07:56:22;;;;;;;4.28;3.88;;;25.20;99.90;;;26.88;50.08;98113.91;5198326;28;20217;-78
2021/08/21 07:58:55;;;;;;;4.57;3.90;;;25.20;99.90;;;26.90;50.00;98104.28;5204544;28;20204;-79
2021/08/21 08:01:28;;;;;;;4.00;3.70;;;25.40;99.90;;;26.84;46.96;98114.81;5203413;28;20201;-79
2021/08/21 08:04:02;;;;;;;4.82;4.30;;;25.40;98.50;;;26.74;48.17;98113.09;5204816;28;20567;-79
2021/08/21 08:06:36;;;;;;;4.90;4.20;;;25.20;99.40;;;26.64;48.05;98111.34;5206307;28;20261;-79
2021/08/21 08:09:09;;;;;;;5.35;3.97;;;25.20;99.20;;;26.95;48.08;98112.13;5206284;28;20205;-79
2021/08/21 08:11:42;;;;;;;5.45;4.35;;;25.40;99.00;;;26.98;47.87;98109.47;5206006;28;20216;-79
2021/08/21 08:14:15;;;;;;;4.60;4.30;;;25.60;99.10;;;27.09;46.66;98110.31;5206001;28;20217;-79
2021/08/21 08:16:49;;;;;;;4.38;3.97;;;25.80;97.70;;;27.14;47.59;98113.78;5206495;28;20223;-79
2021/08/21 08:19:22;;;;;;;4.38;3.97;;;26.00;98.40;;;27.29;46.34;98106.75;5204697;28;20198;-79
2021/08/21 08:21:56;;;;;;;4.15;3.75;;;26.10;97.20;;;27.46;46.27;98109.28;5207762;28;20603;-78
2021/08/21 08:24:29;;;;;;;4.15;3.85;;;26.40;97.10;;;27.71;46.60;98104.72;5210602;28;20224;-81
2021/08/21 08:27:03;;;;;;;5.03;4.30;;;26.70;97.00;;;27.50;46.50;98100.47;5208613;28;20206;-78
2021/08/21 08:29:36;;;;;;;3.88;3.67;;;26.60;96.80;;;27.76;46.49;98110.84;5205836;28;20213;-79
2021/08/21 08:32:10;;;;;;;4.20;3.90;;;26.80;97.10;;;27.83;46.51;98097.66;5201891;28;20204;-79
2021/08/21 08:34:43;;;;;;;4.13;3.83;;;26.90;96.60;;;27.89;46.59;98094.09;5205165;28;20218;-79
2021/08/21 08:37:17;;;;;;;5.07;4.22;;;27.00;96.60;;;28.06;46.15;98100.06;5203712;28;20218;-79
2021/08/21 08:39:51;;;;;;;4.47;4.18;;;27.10;96.10;;;27.99;45.38;98101.03;5203628;28;20204;-79
2021/08/21 08:42:24;;;;;;;4.32;3.70;;;27.10;96.00;;;27.98;45.46;98098.41;5197937;28;20205;-79
2021/08/21 08:44:57;;;;;;;4.80;4.40;;;27.00;96.10;;;27.82;45.36;98098.53;5198372;28;20217;-79
2021/08/21 08:47:31;;;;;;;4.38;4.07;;;26.90;96.00;;;27.97;46.55;98094.91;5201462;28;20194;-80
2021/08/21 08:50:06;;;;;;;4.28;3.97;;;27.20;96.60;;;28.03;45.56;98107.13;5200302;28;20212;-80
2021/08/21 08:52:40;;;;;;;4.80;4.40;;;27.20;96.00;;;28.08;45.10;98095.69;5197866;28;20201;-80
2021/08/21 08:55:14;;;;;;;4.68;4.28;;;27.20;95.50;;;28.26;45.88;98099.88;5200035;28;20328;-79
2021/08/21 08:57:47;;;;;;;5.05;4.65;;;27.50;95.60;;;28.38;46.52;98096.25;5199468;28;20247;-80
2021/08/21 09:00:24;;;;;;;4.78;4.38;;;27.50;96.30;;;28.55;45.44;98096.13;5198794;28;20567;-80
2021/08/21 09:02:59;;;;;;;4.50;4.20;;;27.70;95.40;;;28.69;45.17;98088.94;5199990;28;20292;-80
2021/08/21 09:05:40;;;;;;;4.93;4.57;;;27.90;95.20;;;28.91;44.28;98094.81;5202336;28;20590;-80
2021/08/21 09:08:22;;;;;;;5.15;4.60;;;28.00;94.80;;;29.04;44.70;98090.28;5204510;28;20255;-81
2021/08/21 09:10:57;;;;;;;4.03;3.72;;;28.20;95.10;;;29.15;44.60;98091.00;5204403;28;20221;-80
2021/08/21 09:13:31;;;;;;;4.47;4.18;;;28.30;95.10;;;29.13;44.43;98091.94;5198355;28;20201;-80
2021/08/21 09:16:05;;;;;;;5.55;4.55;;;28.40;94.40;;;29.23;43.22;98088.28;5199085;28;20241;-79
2021/08/21 09:18:38;;;;;;;5.55;5.15;;;28.40;94.10;;;29.33;42.50;98086.38;5201086;28;20201;-80
2021/08/21 09:21:17;;;;;;;5.05;4.63;;;28.70;93.50;;;29.11;44.06;98091.97;5199268;28;20201;-82
2021/08/21 09:23:53;;;;;;;5.57;5.07;;;28.40;94.50;;;28.94;43.64;98088.66;5201142;28;20210;-81
2021/08/21 09:26:34;;;;;;;4.85;4.45;;;28.20;93.90;;;28.95;44.54;98085.13;5201000;28;20628;-80
2021/08/21 09:29:07;;;;;;;4.93;4.53;;;28.20;94.40;;;29.23;43.26;98095.31;5199335;28;20202;-83
2021/08/21 09:31:40;;;;;;;4.72;4.40;;;28.50;93.90;;;29.32;43.55;98089.91;5199481;28;20216;-82
2021/08/21 09:34:20;;;;;;;5.05;4.65;;;28.50;94.00;;;29.30;44.38;98094.34;5198530;28;20224;-81
2021/08/21 09:36:53;;;;;;;5.28;4.80;;;28.50;94.20;;;29.43;43.74;98088.00;5199786;28;20221;-81
2021/08/21 09:39:36;;;;;;;5.00;4.60;;;28.60;93.80;;;29.25;44.95;98088.28;5198287;28;20194;-82
2021/08/21 09:42:11;;;;;;;4.90;4.50;;;28.50;94.50;;;29.51;43.23;98093.16;5196821;28;20598;-82
2021/08/21 09:44:45;;;;;;;4.80;4.50;;;28.70;93.60;;;29.48;43.10;98088.81;5199390;28;20316;-81
2021/08/21 09:47:24;;;;;;;5.53;5.03;;;28.60;93.40;;;29.38;42.08;98085.44;5197952;28;20200;-81
2021/08/21 09:50:15;;;;;;;5.22;4.72;;;28.60;92.90;;;29.16;44.35;98082.25;5200313;28;20312;-82
2021/08/21 09:52:49;;;;;;;5.10;4.70;;;28.40;94.20;;;29.35;45.05;98084.59;5199715;28;20233;-82
2021/08/21 09:55:26;;;;;;;5.40;4.93;;;28.60;94.10;;;29.54;43.52;98079.94;5208610;28;20305;-82
2021/08/21 09:58:03;;;;;;;5.45;4.93;;;28.90;93.20;;;29.67;43.43;98078.88;5209774;28;20710;-86
2021/08/21 10:00:38;;;;;;;5.85;5.43;;;28.90;93.40;;;29.70;42.47;98080.59;5200727;28;20284;-84
2021/08/21 10:03:12;;;;;;;5.03;4.63;;;29.00;92.90;;;29.78;42.83;98078.72;5198946;28;20284;-84
2021/08/21 10:05:48;;;;;;;5.30;4.90;;;28.90;93.40;;;29.89;42.66;98070.63;5198477;28;20217;-86
2021/08/21 10:08:26;;;;;;;5.68;5.28;;;29.00;93.00;;;29.99;41.87;98073.09;5202600;28;20292;-85
2021/08/21 10:11:01;;;;;;;5.53;5.05;;;29.10;92.50;;;29.99;40.06;98070.44;5198822;28;20201;-84
2021/08/21 10:13:35;;;;;;;5.70;5.05;;;29.20;91.20;;;29.72;41.53;98069.13;5197298;28;20227;-85
2021/08/21 10:16:12;;;;;;;5.00;4.70;;;29.00;91.70;;;29.66;41.72;98071.00;5195593;28;20222;-84
2021/08/21 10:18:49;;;;;;;5.57;5.18;;;28.90;92.00;;;29.66;41.45;98063.09;5196637;28;20220;-84
2021/08/21 10:21:23;;;;;;;5.15;4.75;;;28.80;92.10;;;29.69;41.71;98068.31;5198513;28;20201;-82
2021/08/21 10:23:58;;;;;;;4.85;4.53;;;28.80;92.10;;;29.79;41.47;98069.88;5195615;28;20205;-86
2021/08/21 10:26:39;;;;;;;5.00;4.60;;;28.90;91.90;;;29.86;41.03;98061.00;5193859;28;20205;-83
2021/08/21 10:29:14;;;;;;;5.22;4.82;;;29.00;91.50;;;29.98;40.18;98067.81;5202265;28;20201;-85
2021/08/21 10:31:47;;;;;;;5.75;5.32;;;29.00;91.10;;;29.83;40.97;98061.06;5206622;28;20324;-85
2021/08/21 10:34:21;;;;;;;5.35;4.85;;;28.90;91.70;;;29.66;42.03;98056.06;5208741;28;20304;-86
2021/08/21 10:36:56;;;;;;;5.70;5.20;;;28.80;92.00;;;29.80;40.83;98061.09;5204959;28;20236;-85
2021/08/21 10:39:37;;;;;;;4.95;4.57;;;28.80;91.40;;;29.90;39.94;98054.78;5213566;28;20621;-85
2021/08/21 10:42:27;;;;;;;5.25;4.85;;;29.00;90.80;;;29.87;40.31;98049.56;5209446;28;20211;-85
2021/08/21 10:45:01;;;;;;;5.38;4.97;;;29.00;90.60;;;29.87;38.93;98049.56;5204786;28;20237;-84
2021/08/21 10:47:41;;;;;;;6.00;5.20;;;28.90;90.20;;;29.73;40.36;98048.91;5219502;28;20381;-84
2021/08/21 10:50:45;;;;;;;5.65;5.25;;;28.60;91.10;;;29.57;40.91;98043.88;5199621;28;20212;-84